Aérodrome :
LOGIN :

S'inscrire | Disclaimer

   EN    FR    IT 

 










Légende :    VFR   VFR Marginal   IFR   IFR Intensif   IFR Très Intensif
Visi : 
Plafond : 
>= 8 km
>= 3000ft
5 à 8 km
1000 à 3000 ft
1500m à 5 km
500 à 1000 ft
800 à 1500m
200 à 500 ft
< 800m
< 200 ft
Symboles :   Orages  Brouillard  Fortes neiges  Fortes précipitations  Vent > 20 kt
SIGMETs :   Divers  Orages  Givrage  Turbulence  Onde Orograph.  Cendres Volcan.






- Altitude de l'aérodrome : 160 ft
- Code IATA : FMO


EDDG - Münster Osnabrück Int.

DERNIER METAR :
  • 280750Z 15003KT 9999 BKN009 BKN015 M01/M01 Q0996 REFZDZ TEMPO SCT009 BKN015

METARs EXPIRÉS :
  • 280720Z VRB02KT 9999 -FZDZ FEW009 BKN015 M01/M02 Q0996 BECMG NSW
  • 280650Z 16001KT 9000 SCT018 M01/M02 Q0996 NOSIG
  • 280620Z 14003KT 9999 FEW020 M02/M02 Q0996 TEMPO 4000 BR
  • 280550Z VRB01KT 8000 FEW020 M02/M02 Q0995 TEMPO 4000 BR
  • 280520Z VRB01KT 9999 FEW015 M02/M02 Q0995 NOSIG

TAF TAF EDDG
Valide du 28 à 06h jusqu'au 29 à 06h UTC


280500Z 2806/2906 VRB03KT 9999 SCT025
BECMG 2806/2809 BKN008
TEMPO 2811/2818 2500 -SHRASN BKN004TCU
BECMG 2816/2818 SCT008
TEMPO 2818/2906 2500 BCFG BKN005



MET'MAP, la Météo Aéronautique d'un coup d'oeil ! - Copyright ORBIFLY Décembre 2007 - Disclaimer

ORBIFLY MET'MAP TEAM :

Programmation & Développement : Alexandra Zaïnal
Sur une idée originale de : Baudouin d'Aumeries
Assistance à la programmation : Marc-Olivier Méhu
Soutien technique & logistique : Manuel Goepfert

Contact : metmap@orbifly.com




SOURCES & CREDITS :

   NOAA